sensor_id;sensor_type;location;lat;lon;timestamp;pressure;altitude;pressure_sealevel;temperature;humidity
71764;BME280;59602;52.142;5.408;2022-08-21T00:00:21;101852.72;;;16.06;77.81
71764;BME280;59602;52.142;5.408;2022-08-21T00:02:52;101855.06;;;16.08;77.30
71764;BME280;59602;52.142;5.408;2022-08-21T00:05:19;101851.13;;;16.05;77.46
71764;BME280;59602;52.142;5.408;2022-08-21T00:07:46;101852.72;;;16.03;77.42
71764;BME280;59602;52.142;5.408;2022-08-21T00:10:13;101854.28;;;16.00;77.67
71764;BME280;59602;52.142;5.408;2022-08-21T00:12:41;101857.44;;;15.98;77.57
71764;BME280;59602;52.142;5.408;2022-08-21T00:15:09;101855.47;;;15.95;77.48
71764;BME280;59602;52.142;5.408;2022-08-21T00:17:37;101853.50;;;15.92;77.64
71764;BME280;59602;52.142;5.408;2022-08-21T00:20:06;101850.38;;;15.90;77.36
71764;BME280;59602;52.142;5.408;2022-08-21T00:22:35;101848.03;;;15.85;77.55
71764;BME280;59602;52.142;5.408;2022-08-21T00:25:03;101857.41;;;15.84;77.74
71764;BME280;59602;52.142;5.408;2022-08-21T00:27:30;101849.97;;;15.85;77.96
71764;BME280;59602;52.142;5.408;2022-08-21T00:29:57;101851.16;;;15.84;77.51
71764;BME280;59602;52.142;5.408;2022-08-21T00:32:25;101850.38;;;15.83;77.70
71764;BME280;59602;52.142;5.408;2022-08-21T00:34:53;101844.09;;;15.79;78.15
71764;BME280;59602;52.142;5.408;2022-08-21T00:37:20;101833.88;;;15.76;77.69
71764;BME280;59602;52.142;5.408;2022-08-21T00:39:47;101841.34;;;15.75;77.92
71764;BME280;59602;52.142;5.408;2022-08-21T00:42:13;101839.00;;;15.74;77.98
71764;BME280;59602;52.142;5.408;2022-08-21T00:44:42;101839.00;;;15.74;77.79
71764;BME280;59602;52.142;5.408;2022-08-21T00:47:10;101836.25;;;15.74;78.08
71764;BME280;59602;52.142;5.408;2022-08-21T00:49:38;101837.81;;;15.71;78.00
71764;BME280;59602;52.142;5.408;2022-08-21T00:52:07;101840.53;;;15.68;77.75
71764;BME280;59602;52.142;5.408;2022-08-21T00:54:36;101845.63;;;15.66;78.11
71764;BME280;59602;52.142;5.408;2022-08-21T00:57:12;101841.69;;;15.63;78.06
71764;BME280;59602;52.142;5.408;2022-08-21T00:59:44;101845.59;;;15.62;77.76
71764;BME280;59602;52.142;5.408;2022-08-21T01:02:11;101842.47;;;15.64;78.15
71764;BME280;59602;52.142;5.408;2022-08-21T01:04:38;101840.13;;;15.62;77.89
71764;BME280;59602;52.142;5.408;2022-08-21T01:07:06;101842.06;;;15.62;77.96
71764;BME280;59602;52.142;5.408;2022-08-21T01:09:33;101836.59;;;15.62;78.02
71764;BME280;59602;52.142;5.408;2022-08-21T01:12:00;101838.56;;;15.61;78.24
71764;BME280;59602;52.142;5.408;2022-08-21T01:14:26;101829.56;;;15.61;78.33
71764;BME280;59602;52.142;5.408;2022-08-21T01:16:55;101833.47;;;15.60;77.81
71764;BME280;59602;52.142;5.408;2022-08-21T01:19:22;101834.63;;;15.55;78.27
71764;BME280;59602;52.142;5.408;2022-08-21T01:21:49;101828.38;;;15.54;78.16
71764;BME280;59602;52.142;5.408;2022-08-21T01:24:16;101828.75;;;15.53;78.10
71764;BME280;59602;52.142;5.408;2022-08-21T01:26:44;101830.72;;;15.52;78.28
71764;BME280;59602;52.142;5.408;2022-08-21T01:31:38;101844.81;;;15.47;77.83
71764;BME280;59602;52.142;5.408;2022-08-21T01:34:05;101847.53;;;15.44;77.82
71764;BME280;59602;52.142;5.408;2022-08-21T01:36:32;101837.34;;;15.41;78.20
71764;BME280;59602;52.142;5.408;2022-08-21T01:39:00;101832.25;;;15.39;78.03
71764;BME280;59602;52.142;5.408;2022-08-21T01:41:27;101837.34;;;15.37;77.99
71764;BME280;59602;52.142;5.408;2022-08-21T01:43:54;101838.50;;;15.36;78.17
71764;BME280;59602;52.142;5.408;2022-08-21T01:46:20;101832.22;;;15.35;77.91
71764;BME280;59602;52.142;5.408;2022-08-21T01:48:47;101825.19;;;15.34;77.73
71764;BME280;59602;52.142;5.408;2022-08-21T01:51:13;101828.31;;;15.33;77.85
71764;BME280;59602;52.142;5.408;2022-08-21T01:53:40;101825.94;;;15.31;78.43
71764;BME280;59602;52.142;5.408;2022-08-21T01:56:09;101823.63;;;15.30;78.04
71764;BME280;59602;52.142;5.408;2022-08-21T01:58:38;101831.06;;;15.29;78.57
71764;BME280;59602;52.142;5.408;2022-08-21T02:01:05;101826.72;;;15.28;78.48
71764;BME280;59602;52.142;5.408;2022-08-21T02:03:32;101833.78;;;15.26;78.62
71764;BME280;59602;52.142;5.408;2022-08-21T02:06:03;101827.91;;;15.24;78.26
71764;BME280;59602;52.142;5.408;2022-08-21T02:08:30;101823.59;;;15.23;77.89
71764;BME280;59602;52.142;5.408;2022-08-21T02:10:56;101822.78;;;15.22;78.43
71764;BME280;59602;52.142;5.408;2022-08-21T02:13:23;101820.47;;;15.21;78.75
71764;BME280;59602;52.142;5.408;2022-08-21T02:15:50;101818.50;;;15.21;78.33
71764;BME280;59602;52.142;5.408;2022-08-21T02:18:16;101822.81;;;15.19;78.62
71764;BME280;59602;52.142;5.408;2022-08-21T02:20:46;101816.50;;;15.18;78.51
71764;BME280;59602;52.142;5.408;2022-08-21T02:23:13;101813.78;;;15.14;78.35
71764;BME280;59602;52.142;5.408;2022-08-21T02:25:40;101814.16;;;15.13;78.65
71764;BME280;59602;52.142;5.408;2022-08-21T02:28:10;101812.19;;;15.13;79.22
71764;BME280;59602;52.142;5.408;2022-08-21T02:30:41;101812.59;;;15.12;78.68
71764;BME280;59602;52.142;5.408;2022-08-21T02:33:08;101803.59;;;15.08;78.64
71764;BME280;59602;52.142;5.408;2022-08-21T02:35:37;101805.94;;;15.06;79.05
71764;BME280;59602;52.142;5.408;2022-08-21T02:38:07;101808.66;;;15.06;78.84
71764;BME280;59602;52.142;5.408;2022-08-21T02:40:42;101800.84;;;15.08;78.75
71764;BME280;59602;52.142;5.408;2022-08-21T02:43:14;101795.75;;;15.06;78.46
71764;BME280;59602;52.142;5.408;2022-08-21T02:45:42;101798.91;;;15.05;78.32
71764;BME280;59602;52.142;5.408;2022-08-21T02:48:12;101790.66;;;15.01;78.28
71764;BME280;59602;52.142;5.408;2022-08-21T02:50:46;101798.47;;;14.99;78.49
71764;BME280;59602;52.142;5.408;2022-08-21T02:53:15;101794.16;;;14.94;78.48
71764;BME280;59602;52.142;5.408;2022-08-21T02:55:44;101790.22;;;14.92;78.73
71764;BME280;59602;52.142;5.408;2022-08-21T02:58:11;101790.22;;;14.92;78.65
71764;BME280;59602;52.142;5.408;2022-08-21T03:00:39;101789.47;;;14.91;78.99
71764;BME280;59602;52.142;5.408;2022-08-21T03:03:06;101786.72;;;14.91;78.78
71764;BME280;59602;52.142;5.408;2022-08-21T03:05:34;101784.75;;;14.92;78.98
71764;BME280;59602;52.142;5.408;2022-08-21T03:08:03;101782.41;;;14.90;78.96
71764;BME280;59602;52.142;5.408;2022-08-21T03:10:29;101781.63;;;14.90;78.50
71764;BME280;59602;52.142;5.408;2022-08-21T03:12:57;101781.63;;;14.90;78.49
71764;BME280;59602;52.142;5.408;2022-08-21T03:15:24;101782.38;;;14.87;78.48
71764;BME280;59602;52.142;5.408;2022-08-21T03:17:51;101786.28;;;14.86;79.06
71764;BME280;59602;52.142;5.408;2022-08-21T03:20:21;101779.25;;;14.85;78.82
71764;BME280;59602;52.142;5.408;2022-08-21T03:22:49;101777.69;;;14.84;79.25
71764;BME280;59602;52.142;5.408;2022-08-21T03:25:23;101781.59;;;14.83;78.85
71764;BME280;59602;52.142;5.408;2022-08-21T03:28:10;101781.19;;;14.84;78.82
71764;BME280;59602;52.142;5.408;2022-08-21T03:30:41;101784.72;;;14.81;79.04
71764;BME280;59602;52.142;5.408;2022-08-21T03:33:07;101778.84;;;14.79;78.87
71764;BME280;59602;52.142;5.408;2022-08-21T03:35:37;101776.06;;;14.76;78.83
71764;BME280;59602;52.142;5.408;2022-08-21T03:38:04;101778.44;;;14.73;78.88
71764;BME280;59602;52.142;5.408;2022-08-21T03:40:30;101778.44;;;14.73;78.73
71764;BME280;59602;52.142;5.408;2022-08-21T03:42:57;101776.84;;;14.72;78.39
71764;BME280;59602;52.142;5.408;2022-08-21T03:45:25;101778.81;;;14.72;79.40
71764;BME280;59602;52.142;5.408;2022-08-21T03:47:54;101774.91;;;14.69;79.15
71764;BME280;59602;52.142;5.408;2022-08-21T03:50:23;101776.03;;;14.68;79.55
71764;BME280;59602;52.142;5.408;2022-08-21T03:52:50;101774.88;;;14.66;78.96
71764;BME280;59602;52.142;5.408;2022-08-21T03:55:17;101770.94;;;14.63;79.20
71764;BME280;59602;52.142;5.408;2022-08-21T03:57:43;101772.91;;;14.63;79.33
71764;BME280;59602;52.142;5.408;2022-08-21T04:00:11;101772.50;;;14.64;79.53
71764;BME280;59602;52.142;5.408;2022-08-21T04:02:39;101777.19;;;14.60;79.21
71764;BME280;59602;52.142;5.408;2022-08-21T04:05:07;101769.75;;;14.57;78.78
71764;BME280;59602;52.142;5.408;2022-08-21T04:07:33;101773.59;;;14.52;79.16
71764;BME280;59602;52.142;5.408;2022-08-21T04:10:00;101768.91;;;14.53;78.92
71764;BME280;59602;52.142;5.408;2022-08-21T04:12:26;101771.63;;;14.53;79.42
71764;BME280;59602;52.142;5.408;2022-08-21T04:14:53;101775.97;;;14.54;79.40
71764;BME280;59602;52.142;5.408;2022-08-21T04:17:19;101774.38;;;14.53;79.71
71764;BME280;59602;52.142;5.408;2022-08-21T04:19:46;101771.28;;;14.55;79.70
71764;BME280;59602;52.142;5.408;2022-08-21T04:22:18;101772.44;;;14.53;79.65
71764;BME280;59602;52.142;5.408;2022-08-21T04:24:45;101769.72;;;14.53;79.45
71764;BME280;59602;52.142;5.408;2022-08-21T04:27:11;101778.28;;;14.52;79.88
71764;BME280;59602;52.142;5.408;2022-08-21T04:29:38;101772.81;;;14.52;80.27
71764;BME280;59602;52.142;5.408;2022-08-21T04:32:05;101775.56;;;14.52;79.67
71764;BME280;59602;52.142;5.408;2022-08-21T04:34:32;101781.03;;;14.52;79.57
71764;BME280;59602;52.142;5.408;2022-08-21T04:36:59;101765.75;;;14.51;79.88
71764;BME280;59602;52.142;5.408;2022-08-21T04:39:25;101769.69;;;14.50;80.00
71764;BME280;59602;52.142;5.408;2022-08-21T04:41:55;101770.09;;;14.52;80.04
71764;BME280;59602;52.142;5.408;2022-08-21T04:44:21;101774.78;;;14.51;79.64
71764;BME280;59602;52.142;5.408;2022-08-21T04:46:48;101761.84;;;14.48;79.77
71764;BME280;59602;52.142;5.408;2022-08-21T04:49:14;101766.16;;;14.49;79.79
71764;BME280;59602;52.142;5.408;2022-08-21T04:51:41;101764.59;;;14.48;79.81
71764;BME280;59602;52.142;5.408;2022-08-21T04:54:14;101772.78;;;14.48;79.64
71764;BME280;59602;52.142;5.408;2022-08-21T04:56:48;101773.19;;;14.47;80.23
71764;BME280;59602;52.142;5.408;2022-08-21T04:59:19;101768.09;;;14.45;79.48
71764;BME280;59602;52.142;5.408;2022-08-21T05:01:47;101777.09;;;14.46;79.75
71764;BME280;59602;52.142;5.408;2022-08-21T05:04:18;101779.81;;;14.42;80.04
71764;BME280;59602;52.142;5.408;2022-08-21T05:06:48;101776.28;;;14.42;80.03
71764;BME280;59602;52.142;5.408;2022-08-21T05:09:16;101780.59;;;14.46;80.17
71764;BME280;59602;52.142;5.408;2022-08-21T05:11:44;101776.72;;;14.47;79.94
71764;BME280;59602;52.142;5.408;2022-08-21T05:14:11;101783.38;;;14.50;80.06
71764;BME280;59602;52.142;5.408;2022-08-21T05:16:38;101794.31;;;14.50;80.41
71764;BME280;59602;52.142;5.408;2022-08-21T05:19:05;101793.53;;;14.53;80.34
71764;BME280;59602;52.142;5.408;2022-08-21T05:21:33;101798.66;;;14.55;79.37
71764;BME280;59602;52.142;5.408;2022-08-21T05:24:00;101801.41;;;14.55;80.23
71764;BME280;59602;52.142;5.408;2022-08-21T05:26:26;101809.25;;;14.56;80.27
71764;BME280;59602;52.142;5.408;2022-08-21T05:28:53;101797.13;;;14.57;80.16
71764;BME280;59602;52.142;5.408;2022-08-21T05:31:19;101799.88;;;14.61;80.83
71764;BME280;59602;52.142;5.408;2022-08-21T05:33:46;101804.97;;;14.66;80.62
71764;BME280;59602;52.142;5.408;2022-08-21T05:36:12;101810.84;;;14.68;81.04
71764;BME280;59602;52.142;5.408;2022-08-21T05:38:39;101805.78;;;14.70;80.91
71764;BME280;59602;52.142;5.408;2022-08-21T05:41:06;101801.50;;;14.72;81.08
71764;BME280;59602;52.142;5.408;2022-08-21T05:43:33;101801.91;;;14.78;81.03
71764;BME280;59602;52.142;5.408;2022-08-21T05:46:03;101798.03;;;14.83;80.97
71764;BME280;59602;52.142;5.408;2022-08-21T05:48:30;101801.53;;;14.87;80.97
71764;BME280;59602;52.142;5.408;2022-08-21T05:50:57;101801.56;;;14.90;81.10
71764;BME280;59602;52.142;5.408;2022-08-21T05:53:24;101799.63;;;14.94;81.00
71764;BME280;59602;52.142;5.408;2022-08-21T05:55:51;101801.59;;;14.98;81.51
71764;BME280;59602;52.142;5.408;2022-08-21T05:58:20;101798.09;;;15.04;81.41
71764;BME280;59602;52.142;5.408;2022-08-21T06:00:48;101800.47;;;15.09;81.45
71764;BME280;59602;52.142;5.408;2022-08-21T06:03:18;101802.44;;;15.12;81.98
71764;BME280;59602;52.142;5.408;2022-08-21T06:05:46;101792.66;;;15.19;82.00
71764;BME280;59602;52.142;5.408;2022-08-21T06:08:13;101789.16;;;15.25;82.14
71764;BME280;59602;52.142;5.408;2022-08-21T06:10:40;101788.78;;;15.34;82.06
71764;BME280;59602;52.142;5.408;2022-08-21T06:13:06;101791.13;;;15.39;81.89
71764;BME280;59602;52.142;5.408;2022-08-21T06:15:33;101791.53;;;15.48;81.89
71764;BME280;59602;52.142;5.408;2022-08-21T06:18:00;101790.75;;;15.55;82.12
71764;BME280;59602;52.142;5.408;2022-08-21T06:20:26;101791.56;;;15.59;81.84
71764;BME280;59602;52.142;5.408;2022-08-21T06:22:53;101796.25;;;15.69;82.15
71764;BME280;59602;52.142;5.408;2022-08-21T06:25:20;101797.88;;;15.81;82.23
71764;BME280;59602;52.142;5.408;2022-08-21T06:27:46;101793.94;;;15.93;82.14
71764;BME280;59602;52.142;5.408;2022-08-21T06:30:13;101792.34;;;16.03;82.37
71764;BME280;59602;52.142;5.408;2022-08-21T06:32:40;101800.56;;;16.13;82.44
71764;BME280;59602;52.142;5.408;2022-08-21T06:35:07;101795.47;;;16.26;81.79
71764;BME280;59602;52.142;5.408;2022-08-21T06:37:34;101793.47;;;16.37;82.26
71764;BME280;59602;52.142;5.408;2022-08-21T06:40:01;101785.19;;;16.52;81.67
71764;BME280;59602;52.142;5.408;2022-08-21T06:42:28;101792.97;;;16.68;81.77
71764;BME280;59602;52.142;5.408;2022-08-21T06:44:56;101792.59;;;16.80;81.63
71764;BME280;59602;52.142;5.408;2022-08-21T06:47:23;101797.22;;;16.97;81.15
71764;BME280;59602;52.142;5.408;2022-08-21T06:49:50;101800.25;;;17.17;81.43
71764;BME280;59602;52.142;5.408;2022-08-21T06:52:16;101799.78;;;17.33;80.52
71764;BME280;59602;52.142;5.408;2022-08-21T06:54:42;101803.56;;;17.50;80.23
71764;BME280;59602;52.142;5.408;2022-08-21T06:57:09;101801.13;;;17.63;79.51
71764;BME280;59602;52.142;5.408;2022-08-21T06:59:36;101800.59;;;17.79;78.91
71764;BME280;59602;52.142;5.408;2022-08-21T07:02:03;101801.31;;;17.94;79.14
71764;BME280;59602;52.142;5.408;2022-08-21T07:04:29;101803.13;;;18.08;77.56
71764;BME280;59602;52.142;5.408;2022-08-21T07:06:56;101797.56;;;18.15;77.68
71764;BME280;59602;52.142;5.408;2022-08-21T07:09:23;101799.44;;;18.25;78.02
71764;BME280;59602;52.142;5.408;2022-08-21T07:11:52;101801.25;;;18.39;78.11
71764;BME280;59602;52.142;5.408;2022-08-21T07:14:19;101799.53;;;18.52;77.37
71764;BME280;59602;52.142;5.408;2022-08-21T07:16:47;101797.84;;;18.62;76.53
71764;BME280;59602;52.142;5.408;2022-08-21T07:19:14;101798.94;;;18.68;75.39
71764;BME280;59602;52.142;5.408;2022-08-21T07:21:41;101798.53;;;18.73;76.03
71764;BME280;59602;52.142;5.408;2022-08-21T07:24:08;101792.09;;;18.83;75.81
71764;BME280;59602;52.142;5.408;2022-08-21T07:26:35;101790.31;;;18.66;74.85
71764;BME280;59602;52.142;5.408;2022-08-21T07:29:02;101787.78;;;18.48;76.50
71764;BME280;59602;52.142;5.408;2022-08-21T07:31:29;101790.25;;;18.39;74.84
71764;BME280;59602;52.142;5.408;2022-08-21T07:33:56;101799.69;;;18.38;76.27
71764;BME280;59602;52.142;5.408;2022-08-21T07:36:23;101793.41;;;18.37;76.21
71764;BME280;59602;52.142;5.408;2022-08-21T07:38:50;101795.00;;;18.35;77.04
71764;BME280;59602;52.142;5.408;2022-08-21T07:41:21;101797.72;;;18.38;75.47
71764;BME280;59602;52.142;5.408;2022-08-21T07:43:48;101794.13;;;18.41;76.55
71764;BME280;59602;52.142;5.408;2022-08-21T07:46:18;101796.88;;;18.45;75.31
71764;BME280;59602;52.142;5.408;2022-08-21T07:48:45;101800.41;;;18.45;75.98
71764;BME280;59602;52.142;5.408;2022-08-21T07:51:13;101800.41;;;18.45;74.55
71764;BME280;59602;52.142;5.408;2022-08-21T07:53:41;101795.28;;;18.44;75.42
71764;BME280;59602;52.142;5.408;2022-08-21T07:56:08;101803.94;;;18.46;76.07
71764;BME280;59602;52.142;5.408;2022-08-21T07:58:35;101805.50;;;18.47;76.85
71764;BME280;59602;52.142;5.408;2022-08-21T08:01:01;101806.28;;;18.48;76.16
71764;BME280;59602;52.142;5.408;2022-08-21T08:03:28;101807.47;;;18.46;76.05
71764;BME280;59602;52.142;5.408;2022-08-21T08:05:55;101799.59;;;18.49;76.24
71764;BME280;59602;52.142;5.408;2022-08-21T08:08:22;101801.91;;;18.50;77.52
71764;BME280;59602;52.142;5.408;2022-08-21T08:10:50;101798.38;;;18.53;76.05
71764;BME280;59602;52.142;5.408;2022-08-21T08:13:17;101792.41;;;18.55;77.36
71764;BME280;59602;52.142;5.408;2022-08-21T08:15:43;101789.22;;;18.60;76.11
71764;BME280;59602;52.142;5.408;2022-08-21T08:18:10;101789.94;;;18.64;75.90
71764;BME280;59602;52.142;5.408;2022-08-21T08:20:37;101786.00;;;18.65;76.15
71764;BME280;59602;52.142;5.408;2022-08-21T08:23:03;101783.63;;;18.67;76.73
71764;BME280;59602;52.142;5.408;2022-08-21T08:25:29;101782.78;;;18.70;76.87
71764;BME280;59602;52.142;5.408;2022-08-21T08:28:02;101789.81;;;18.75;76.29
71764;BME280;59602;52.142;5.408;2022-08-21T08:30:38;101791.38;;;18.79;77.17
71764;BME280;59602;52.142;5.408;2022-08-21T08:33:06;101787.81;;;18.82;77.07
71764;BME280;59602;52.142;5.408;2022-08-21T08:35:32;101782.66;;;18.84;77.92
71764;BME280;59602;52.142;5.408;2022-08-21T08:38:04;101785.72;;;18.90;77.17
71764;BME280;59602;52.142;5.408;2022-08-21T08:40:39;101793.59;;;18.92;76.31
71764;BME280;59602;52.142;5.408;2022-08-21T08:43:08;101787.22;;;18.95;77.04
71764;BME280;59602;52.142;5.408;2022-08-21T08:45:46;101788.34;;;19.01;76.75
71764;BME280;59602;52.142;5.408;2022-08-21T08:48:21;101793.75;;;19.08;77.36
71764;BME280;59602;52.142;5.408;2022-08-21T08:50:55;101790.47;;;19.17;77.62
71764;BME280;59602;52.142;5.408;2022-08-21T08:53:28;101787.69;;;19.20;76.39
71764;BME280;59602;52.142;5.408;2022-08-21T08:55:57;101782.09;;;19.24;76.42
71764;BME280;59602;52.142;5.408;2022-08-21T08:58:29;101784.44;;;19.25;76.01
71764;BME280;59602;52.142;5.408;2022-08-21T09:00:57;101780.84;;;19.28;76.34
71764;BME280;59602;52.142;5.408;2022-08-21T09:04:06;101788.31;;;19.32;75.55
71764;BME280;59602;52.142;5.408;2022-08-21T09:06:54;101782.69;;;19.39;76.20
71764;BME280;59602;52.142;5.408;2022-08-21T09:09:48;101781.00;;;19.45;75.44
71764;BME280;59602;52.142;5.408;2022-08-21T09:12:28;101778.13;;;19.52;75.61
71764;BME280;59602;52.142;5.408;2022-08-21T09:15:06;101786.28;;;19.59;74.83
71764;BME280;59602;52.142;5.408;2022-08-21T09:18:03;101784.31;;;19.60;73.79
71764;BME280;59602;52.142;5.408;2022-08-21T09:21:02;101780.00;;;19.59;74.33
71764;BME280;59602;52.142;5.408;2022-08-21T09:23:55;101784.75;;;19.58;73.67
71764;BME280;59602;52.142;5.408;2022-08-21T09:26:44;101777.25;;;19.59;73.18
71764;BME280;59602;52.142;5.408;2022-08-21T09:29:17;101777.59;;;19.61;73.02
71764;BME280;59602;52.142;5.408;2022-08-21T09:31:46;101777.13;;;19.66;73.49
71764;BME280;59602;52.142;5.408;2022-08-21T09:34:25;101774.63;;;19.75;73.52
71764;BME280;59602;52.142;5.408;2022-08-21T09:36:52;101777.22;;;19.86;71.62
71764;BME280;59602;52.142;5.408;2022-08-21T09:39:31;101790.13;;;19.93;72.37
71764;BME280;59602;52.142;5.408;2022-08-21T09:42:09;101792.47;;;19.94;71.24
71764;BME280;59602;52.142;5.408;2022-08-21T09:44:39;101782.97;;;19.95;72.12
71764;BME280;59602;52.142;5.408;2022-08-21T09:47:11;101788.06;;;19.97;73.04
71764;BME280;59602;52.142;5.408;2022-08-21T09:49:41;101784.03;;;20.01;72.50
71764;BME280;59602;52.142;5.408;2022-08-21T09:52:18;101789.50;;;20.05;71.18
71764;BME280;59602;52.142;5.408;2022-08-21T09:54:46;101782.28;;;20.11;72.31
71764;BME280;59602;52.142;5.408;2022-08-21T09:57:18;101777.13;;;20.13;69.64
71764;BME280;59602;52.142;5.408;2022-08-21T10:00:29;101776.63;;;20.18;70.71
71764;BME280;59602;52.142;5.408;2022-08-21T10:05:49;101772.84;;;20.32;68.51
71764;BME280;59602;52.142;5.408;2022-08-21T10:08:18;101767.31;;;20.32;68.63
71764;BME280;59602;52.142;5.408;2022-08-21T10:10:50;101761.63;;;20.39;69.10
71764;BME280;59602;52.142;5.408;2022-08-21T10:18:39;101770.91;;;20.49;69.57
71764;BME280;59602;52.142;5.408;2022-08-21T10:26:30;101772.91;;;20.68;66.41
71764;BME280;59602;52.142;5.408;2022-08-21T10:31:32;101762.56;;;20.72;68.16
71764;BME280;59602;52.142;5.408;2022-08-21T10:34:28;101754.53;;;20.78;68.45
71764;BME280;59602;52.142;5.408;2022-08-21T10:39:50;101760.03;;;20.98;67.96
71764;BME280;59602;52.142;5.408;2022-08-21T10:47:40;101747.72;;;21.19;66.14
71764;BME280;59602;52.142;5.408;2022-08-21T10:50:31;101753.41;;;21.28;64.40
71764;BME280;59602;52.142;5.408;2022-08-21T10:55:59;101751.59;;;21.38;64.71
71764;BME280;59602;52.142;5.408;2022-08-21T10:58:31;101741.19;;;21.46;64.79
71764;BME280;59602;52.142;5.408;2022-08-21T11:01:09;101745.84;;;21.49;63.23
71764;BME280;59602;52.142;5.408;2022-08-21T11:03:42;101743.06;;;21.49;63.98
71764;BME280;59602;52.142;5.408;2022-08-21T11:06:14;101743.13;;;21.45;64.40
71764;BME280;59602;52.142;5.408;2022-08-21T11:08:44;101741.59;;;21.44;64.65
71764;BME280;59602;52.142;5.408;2022-08-21T11:13:55;101737.72;;;21.42;64.72
71764;BME280;59602;52.142;5.408;2022-08-21T11:16:48;101751.56;;;21.42;65.05
71764;BME280;59602;52.142;5.408;2022-08-21T11:19:22;101736.31;;;21.50;62.87
71764;BME280;59602;52.142;5.408;2022-08-21T11:21:59;101739.78;;;21.54;61.75
71764;BME280;59602;52.142;5.408;2022-08-21T11:24:33;101741.69;;;21.57;62.02
71764;BME280;59602;52.142;5.408;2022-08-21T11:27:23;101734.75;;;21.65;62.08
71764;BME280;59602;52.142;5.408;2022-08-21T11:29:55;101733.34;;;21.73;60.21
71764;BME280;59602;52.142;5.408;2022-08-21T11:38:04;101736.31;;;21.66;62.90
71764;BME280;59602;52.142;5.408;2022-08-21T11:40:50;101740.72;;;21.64;62.03
71764;BME280;59602;52.142;5.408;2022-08-21T11:45:50;101741.16;;;21.62;63.12
71764;BME280;59602;52.142;5.408;2022-08-21T11:51:07;101750.66;;;21.61;60.71
71764;BME280;59602;52.142;5.408;2022-08-21T11:53:40;101749.47;;;21.62;62.24
71764;BME280;59602;52.142;5.408;2022-08-21T11:56:25;101763.31;;;21.62;61.51
71764;BME280;59602;52.142;5.408;2022-08-21T11:58:57;101755.75;;;21.63;61.96
71764;BME280;59602;52.142;5.408;2022-08-21T12:01:28;101757.34;;;21.64;62.58
71764;BME280;59602;52.142;5.408;2022-08-21T12:04:02;101762.06;;;21.63;62.84
71764;BME280;59602;52.142;5.408;2022-08-21T12:06:33;101766.06;;;21.62;62.94
71764;BME280;59602;52.142;5.408;2022-08-21T12:09:04;101763.31;;;21.62;63.14
71764;BME280;59602;52.142;5.408;2022-08-21T12:11:31;101765.28;;;21.62;63.78
71764;BME280;59602;52.142;5.408;2022-08-21T12:16:35;101758.19;;;21.61;63.84
71764;BME280;59602;52.142;5.408;2022-08-21T12:19:13;101758.19;;;21.61;63.49
71764;BME280;59602;52.142;5.408;2022-08-21T12:26:59;101750.22;;;21.63;61.76
71764;BME280;59602;52.142;5.408;2022-08-21T12:29:30;101748.84;;;21.71;62.07
71764;BME280;59602;52.142;5.408;2022-08-21T12:32:00;101751.41;;;21.78;62.32
71764;BME280;59602;52.142;5.408;2022-08-21T12:34:33;101744.56;;;21.83;64.63
71764;BME280;59602;52.142;5.408;2022-08-21T12:37:06;101748.91;;;21.84;62.94
71764;BME280;59602;52.142;5.408;2022-08-21T12:39:36;101751.56;;;21.87;62.65
71764;BME280;59602;52.142;5.408;2022-08-21T12:44:45;101744.50;;;22.15;59.85
71764;BME280;59602;52.142;5.408;2022-08-21T12:47:29;101752.69;;;22.35;60.24
71764;BME280;59602;52.142;5.408;2022-08-21T12:50:08;101757.59;;;22.44;58.79
71764;BME280;59602;52.142;5.408;2022-08-21T12:52:41;101754.13;;;22.40;57.58
71764;BME280;59602;52.142;5.408;2022-08-21T12:55:12;101753.88;;;22.34;58.86
71764;BME280;59602;52.142;5.408;2022-08-21T12:57:40;101754.00;;;22.31;59.52
71764;BME280;59602;52.142;5.408;2022-08-21T13:00:12;101758.53;;;22.25;60.52
71764;BME280;59602;52.142;5.408;2022-08-21T13:02:45;101753.88;;;22.22;59.03
71764;BME280;59602;52.142;5.408;2022-08-21T13:05:23;101758.25;;;22.19;60.37
71764;BME280;59602;52.142;5.408;2022-08-21T13:07:50;101754.28;;;22.20;59.70
71764;BME280;59602;52.142;5.408;2022-08-21T13:10:23;101761.34;;;22.21;59.36
71764;BME280;59602;52.142;5.408;2022-08-21T13:12:54;101765.72;;;22.22;59.61
71764;BME280;59602;52.142;5.408;2022-08-21T13:15:25;101763.28;;;22.24;58.98
71764;BME280;59602;52.142;5.408;2022-08-21T13:18:00;101768.84;;;22.24;58.83
71764;BME280;59602;52.142;5.408;2022-08-21T13:20:32;101769.19;;;22.26;59.35
71764;BME280;59602;52.142;5.408;2022-08-21T13:23:01;101769.06;;;22.30;59.42
71764;BME280;59602;52.142;5.408;2022-08-21T13:25:33;101771.06;;;22.29;58.51
71764;BME280;59602;52.142;5.408;2022-08-21T13:28:05;101769.53;;;22.28;58.74
71764;BME280;59602;52.142;5.408;2022-08-21T13:30:33;101762.41;;;22.27;59.68
71764;BME280;59602;52.142;5.408;2022-08-21T13:33:03;101763.63;;;22.26;59.64
71764;BME280;59602;52.142;5.408;2022-08-21T13:38:26;101763.84;;;22.32;59.17
71764;BME280;59602;52.142;5.408;2022-08-21T13:40:59;101760.03;;;22.42;60.07
71764;BME280;59602;52.142;5.408;2022-08-21T13:43:31;101764.47;;;22.52;58.84
71764;BME280;59602;52.142;5.408;2022-08-21T13:45:59;101756.41;;;22.58;58.28
71764;BME280;59602;52.142;5.408;2022-08-21T13:48:29;101759.50;;;22.60;59.17
71764;BME280;59602;52.142;5.408;2022-08-21T13:50:58;101761.50;;;22.59;59.69
71764;BME280;59602;52.142;5.408;2022-08-21T13:53:32;101761.16;;;22.57;59.65
71764;BME280;59602;52.142;5.408;2022-08-21T13:56:00;101760.81;;;22.55;60.44
71764;BME280;59602;52.142;5.408;2022-08-21T13:58:30;101761.59;;;22.56;61.25
71764;BME280;59602;52.142;5.408;2022-08-21T14:00:59;101752.50;;;22.55;57.18